sensor_id;sensor_type;location;lat;lon;timestamp;temperature;humidity
19968;DHT22;10145;49.152;9.282;2022-10-16T04:00:50;16.20;99.90
19968;DHT22;10145;49.152;9.282;2022-10-16T04:03:16;16.20;99.90
19968;DHT22;10145;49.152;9.282;2022-10-16T04:05:42;16.20;99.90
19968;DHT22;10145;49.152;9.282;2022-10-16T04:08:08;16.20;99.90
19968;DHT22;10145;49.152;9.282;2022-10-16T04:10:33;16.20;99.90
19968;DHT22;10145;49.152;9.282;2022-10-16T04:12:59;16.20;99.90
19968;DHT22;10145;49.152;9.282;2022-10-16T04:15:25;16.10;99.90
19968;DHT22;10145;49.152;9.282;2022-10-16T04:17:51;16.10;99.90
19968;DHT22;10145;49.152;9.282;2022-10-16T04:20:17;16.10;99.90
19968;DHT22;10145;49.152;9.282;2022-10-16T04:22:43;16.10;99.90
19968;DHT22;10145;49.152;9.282;2022-10-16T04:25:09;16.00;99.90
19968;DHT22;10145;49.152;9.282;2022-10-16T04:27:36;15.90;99.90
19968;DHT22;10145;49.152;9.282;2022-10-16T04:30:02;15.90;99.90
19968;DHT22;10145;49.152;9.282;2022-10-16T04:32:28;15.90;99.90
19968;DHT22;10145;49.152;9.282;2022-10-16T04:34:54;15.90;99.90
19968;DHT22;10145;49.152;9.282;2022-10-16T04:37:23;15.90;99.90
19968;DHT22;10145;49.152;9.282;2022-10-16T04:39:49;15.90;99.90
19968;DHT22;10145;49.152;9.282;2022-10-16T04:42:15;16.00;99.90
19968;DHT22;10145;49.152;9.282;2022-10-16T04:44:40;16.10;99.90
19968;DHT22;10145;49.152;9.282;2022-10-16T04:47:06;16.00;99.90
19968;DHT22;10145;49.152;9.282;2022-10-16T04:49:31;16.00;99.90
19968;DHT22;10145;49.152;9.282;2022-10-16T04:51:57;16.00;99.90
19968;DHT22;10145;49.152;9.282;2022-10-16T04:54:22;16.00;99.90
19968;DHT22;10145;49.152;9.282;2022-10-16T04:56:48;16.00;99.90
19968;DHT22;10145;49.152;9.282;2022-10-16T04:59:16;16.00;99.90
19968;DHT22;10145;49.152;9.282;2022-10-16T05:01:42;16.00;99.90
19968;DHT22;10145;49.152;9.282;2022-10-16T05:04:09;15.90;99.90
19968;DHT22;10145;49.152;9.282;2022-10-16T05:06:35;15.90;99.90
19968;DHT22;10145;49.152;9.282;2022-10-16T05:09:00;15.80;99.90
19968;DHT22;10145;49.152;9.282;2022-10-16T05:11:26;15.80;99.90
19968;DHT22;10145;49.152;9.282;2022-10-16T05:13:52;15.80;99.90
19968;DHT22;10145;49.152;9.282;2022-10-16T05:16:17;15.70;99.90
19968;DHT22;10145;49.152;9.282;2022-10-16T05:18:43;15.70;99.90
19968;DHT22;10145;49.152;9.282;2022-10-16T05:21:09;15.70;99.90
19968;DHT22;10145;49.152;9.282;2022-10-16T05:23:34;15.70;99.90
19968;DHT22;10145;49.152;9.282;2022-10-16T05:26:00;15.60;99.90
19968;DHT22;10145;49.152;9.282;2022-10-16T05:28:26;15.60;99.90
19968;DHT22;10145;49.152;9.282;2022-10-16T05:30:52;15.60;99.90
19968;DHT22;10145;49.152;9.282;2022-10-16T05:33:20;15.60;99.90
19968;DHT22;10145;49.152;9.282;2022-10-16T05:35:46;15.60;99.90
19968;DHT22;10145;49.152;9.282;2022-10-16T05:38:12;15.60;99.90
19968;DHT22;10145;49.152;9.282;2022-10-16T05:40:37;15.60;99.90
19968;DHT22;10145;49.152;9.282;2022-10-16T05:43:03;15.70;99.90
19968;DHT22;10145;49.152;9.282;2022-10-16T05:45:28;15.70;99.90
19968;DHT22;10145;49.152;9.282;2022-10-16T05:47:54;15.70;99.90
19968;DHT22;10145;49.152;9.282;2022-10-16T05:50:19;15.70;99.90
19968;DHT22;10145;49.152;9.282;2022-10-16T05:52:45;15.80;99.90
19968;DHT22;10145;49.152;9.282;2022-10-16T05:55:10;15.80;99.90
19968;DHT22;10145;49.152;9.282;2022-10-16T05:57:36;15.80;99.90
19968;DHT22;10145;49.152;9.282;2022-10-16T06:00:03;15.80;99.90
19968;DHT22;10145;49.152;9.282;2022-10-16T06:02:29;15.90;99.90
19968;DHT22;10145;49.152;9.282;2022-10-16T06:04:54;15.90;99.90
19968;DHT22;10145;49.152;9.282;2022-10-16T06:07:20;16.00;99.90
19968;DHT22;10145;49.152;9.282;2022-10-16T06:09:50;15.90;99.90
19968;DHT22;10145;49.152;9.282;2022-10-16T06:12:16;16.00;99.90
19968;DHT22;10145;49.152;9.282;2022-10-16T06:14:41;15.90;99.90
19968;DHT22;10145;49.152;9.282;2022-10-16T06:17:07;15.90;99.90
19968;DHT22;10145;49.152;9.282;2022-10-16T06:19:32;15.80;99.90
19968;DHT22;10145;49.152;9.282;2022-10-16T06:21:58;15.80;99.90
19968;DHT22;10145;49.152;9.282;2022-10-16T06:24:24;15.80;99.90
19968;DHT22;10145;49.152;9.282;2022-10-16T06:26:50;15.80;99.90
19968;DHT22;10145;49.152;9.282;2022-10-16T06:29:16;15.80;99.90
19968;DHT22;10145;49.152;9.282;2022-10-16T06:31:41;15.80;99.90
19968;DHT22;10145;49.152;9.282;2022-10-16T06:34:10;15.80;99.90
19968;DHT22;10145;49.152;9.282;2022-10-16T06:36:37;15.80;99.90
19968;DHT22;10145;49.152;9.282;2022-10-16T06:39:04;15.90;99.90
19968;DHT22;10145;49.152;9.282;2022-10-16T06:41:30;15.90;99.90
19968;DHT22;10145;49.152;9.282;2022-10-16T06:43:56;15.90;99.90
19968;DHT22;10145;49.152;9.282;2022-10-16T06:46:23;16.00;99.90
19968;DHT22;10145;49.152;9.282;2022-10-16T06:48:49;16.00;99.90
19968;DHT22;10145;49.152;9.282;2022-10-16T06:51:17;16.10;99.90
19968;DHT22;10145;49.152;9.282;2022-10-16T06:53:48;16.20;99.90
19968;DHT22;10145;49.152;9.282;2022-10-16T06:58:40;16.30;99.90
19968;DHT22;10145;49.152;9.282;2022-10-16T07:01:06;16.30;99.90
19968;DHT22;10145;49.152;9.282;2022-10-16T07:03:32;16.40;99.90
19968;DHT22;10145;49.152;9.282;2022-10-16T07:06:02;16.40;99.90
19968;DHT22;10145;49.152;9.282;2022-10-16T07:08:31;16.40;99.90
19968;DHT22;10145;49.152;9.282;2022-10-16T07:11:17;16.60;99.90
19968;DHT22;10145;49.152;9.282;2022-10-16T07:13:44;16.70;99.90
19968;DHT22;10145;49.152;9.282;2022-10-16T07:16:16;16.70;99.90
19968;DHT22;10145;49.152;9.282;2022-10-16T07:18:42;16.70;99.90
19968;DHT22;10145;49.152;9.282;2022-10-16T07:21:18;16.70;99.90
19968;DHT22;10145;49.152;9.282;2022-10-16T07:23:44;16.70;99.90
19968;DHT22;10145;49.152;9.282;2022-10-16T07:26:11;16.70;99.90
19968;DHT22;10145;49.152;9.282;2022-10-16T07:28:37;16.80;99.90
19968;DHT22;10145;49.152;9.282;2022-10-16T07:31:04;16.80;99.90
19968;DHT22;10145;49.152;9.282;2022-10-16T07:33:31;16.80;99.90
19968;DHT22;10145;49.152;9.282;2022-10-16T07:35:57;16.80;99.90
19968;DHT22;10145;49.152;9.282;2022-10-16T07:38:23;16.90;99.90
19968;DHT22;10145;49.152;9.282;2022-10-16T07:40:55;17.00;99.90
19968;DHT22;10145;49.152;9.282;2022-10-16T07:43:20;17.10;99.90
19968;DHT22;10145;49.152;9.282;2022-10-16T07:45:47;17.20;99.90
19968;DHT22;10145;49.152;9.282;2022-10-16T07:48:15;17.40;99.90
19968;DHT22;10145;49.152;9.282;2022-10-16T07:50:41;17.40;99.90
19968;DHT22;10145;49.152;9.282;2022-10-16T07:53:07;17.50;99.90
19968;DHT22;10145;49.152;9.282;2022-10-16T07:55:33;17.60;99.90
19968;DHT22;10145;49.152;9.282;2022-10-16T07:57:58;17.60;99.90
19968;DHT22;10145;49.152;9.282;2022-10-16T08:00:24;17.80;99.90
19968;DHT22;10145;49.152;9.282;2022-10-16T08:02:49;17.90;99.90
19968;DHT22;10145;49.152;9.282;2022-10-16T08:05:15;17.90;99.90
19968;DHT22;10145;49.152;9.282;2022-10-16T08:07:41;18.10;99.90
19968;DHT22;10145;49.152;9.282;2022-10-16T08:10:09;18.20;99.90
19968;DHT22;10145;49.152;9.282;2022-10-16T08:12:36;18.30;99.90
19968;DHT22;10145;49.152;9.282;2022-10-16T08:15:01;18.40;99.90
19968;DHT22;10145;49.152;9.282;2022-10-16T08:17:27;18.40;99.90
19968;DHT22;10145;49.152;9.282;2022-10-16T08:19:52;18.50;99.90
19968;DHT22;10145;49.152;9.282;2022-10-16T08:22:18;18.50;99.90
19968;DHT22;10145;49.152;9.282;2022-10-16T08:24:44;18.70;99.90
19968;DHT22;10145;49.152;9.282;2022-10-16T08:27:09;18.90;99.90
19968;DHT22;10145;49.152;9.282;2022-10-16T08:29:35;19.30;99.90
19968;DHT22;10145;49.152;9.282;2022-10-16T08:32:01;19.80;99.90
19968;DHT22;10145;49.152;9.282;2022-10-16T08:34:26;19.90;99.90
19968;DHT22;10145;49.152;9.282;2022-10-16T08:36:55;20.10;99.90
19968;DHT22;10145;49.152;9.282;2022-10-16T08:39:20;20.30;99.90
19968;DHT22;10145;49.152;9.282;2022-10-16T08:42:07;20.40;99.90
19968;DHT22;10145;49.152;9.282;2022-10-16T08:45:02;20.60;99.90
19968;DHT22;10145;49.152;9.282;2022-10-16T08:50:39;20.70;99.90
19968;DHT22;10145;49.152;9.282;2022-10-16T08:53:05;20.70;99.90
19968;DHT22;10145;49.152;9.282;2022-10-16T08:58:14;20.90;99.90
19968;DHT22;10145;49.152;9.282;2022-10-16T09:00:42;20.90;99.90
19968;DHT22;10145;49.152;9.282;2022-10-16T09:03:26;20.60;99.90
19968;DHT22;10145;49.152;9.282;2022-10-16T09:06:10;20.70;99.90
19968;DHT22;10145;49.152;9.282;2022-10-16T09:11:48;21.10;99.90
19968;DHT22;10145;49.152;9.282;2022-10-16T09:14:46;20.90;99.90
19968;DHT22;10145;49.152;9.282;2022-10-16T09:22:44;20.70;99.90
19968;DHT22;10145;49.152;9.282;2022-10-16T09:25:21;20.70;99.90
19968;DHT22;10145;49.152;9.282;2022-10-16T09:27:48;20.70;99.90
19968;DHT22;10145;49.152;9.282;2022-10-16T09:30:19;20.90;99.90
19968;DHT22;10145;49.152;9.282;2022-10-16T09:32:47;21.10;99.90
19968;DHT22;10145;49.152;9.282;2022-10-16T09:35:24;21.20;99.90
19968;DHT22;10145;49.152;9.282;2022-10-16T09:37:54;21.30;99.90
19968;DHT22;10145;49.152;9.282;2022-10-16T09:40:30;21.50;99.90
19968;DHT22;10145;49.152;9.282;2022-10-16T09:43:02;21.50;99.90
19968;DHT22;10145;49.152;9.282;2022-10-16T09:45:28;21.80;99.90
19968;DHT22;10145;49.152;9.282;2022-10-16T09:47:54;22.00;99.90
19968;DHT22;10145;49.152;9.282;2022-10-16T09:50:28;22.30;99.90
19968;DHT22;10145;49.152;9.282;2022-10-16T09:53:05;22.70;99.90
19968;DHT22;10145;49.152;9.282;2022-10-16T09:55:30;23.00;99.90
19968;DHT22;10145;49.152;9.282;2022-10-16T09:57:56;23.20;99.90
19968;DHT22;10145;49.152;9.282;2022-10-16T10:00:23;23.10;99.90
19968;DHT22;10145;49.152;9.282;2022-10-16T10:02:49;23.10;99.90
19968;DHT22;10145;49.152;9.282;2022-10-16T10:05:28;23.10;99.90
19968;DHT22;10145;49.152;9.282;2022-10-16T10:08:01;23.10;99.90
19968;DHT22;10145;49.152;9.282;2022-10-16T10:10:33;23.00;99.90
19968;DHT22;10145;49.152;9.282;2022-10-16T10:13:00;22.90;99.90
19968;DHT22;10145;49.152;9.282;2022-10-16T10:15:32;22.70;99.90
19968;DHT22;10145;49.152;9.282;2022-10-16T10:17:58;22.40;99.90
19968;DHT22;10145;49.152;9.282;2022-10-16T10:20:35;22.20;99.90
19968;DHT22;10145;49.152;9.282;2022-10-16T10:23:23;22.00;99.90
19968;DHT22;10145;49.152;9.282;2022-10-16T10:29:04;21.80;99.90
19968;DHT22;10145;49.152;9.282;2022-10-16T10:31:42;21.50;99.90
19968;DHT22;10145;49.152;9.282;2022-10-16T10:34:26;21.60;99.90
19968;DHT22;10145;49.152;9.282;2022-10-16T10:37:15;21.90;99.90
19968;DHT22;10145;49.152;9.282;2022-10-16T10:42:45;22.40;99.90
19968;DHT22;10145;49.152;9.282;2022-10-16T10:45:28;22.60;99.90
19968;DHT22;10145;49.152;9.282;2022-10-16T10:51:01;22.50;99.90
19968;DHT22;10145;49.152;9.282;2022-10-16T10:56:26;22.50;99.90
19968;DHT22;10145;49.152;9.282;2022-10-16T11:07:48;22.20;99.90
19968;DHT22;10145;49.152;9.282;2022-10-16T11:12:49;22.10;99.90
19968;DHT22;10145;49.152;9.282;2022-10-16T11:15:27;21.90;99.90
19968;DHT22;10145;49.152;9.282;2022-10-16T11:18:04;21.70;99.90
19968;DHT22;10145;49.152;9.282;2022-10-16T11:20:40;21.70;99.90
19968;DHT22;10145;49.152;9.282;2022-10-16T11:23:18;21.80;99.90
19968;DHT22;10145;49.152;9.282;2022-10-16T11:25:47;21.90;99.90
19968;DHT22;10145;49.152;9.282;2022-10-16T11:28:27;22.20;99.90
19968;DHT22;10145;49.152;9.282;2022-10-16T11:31:08;22.40;99.90
19968;DHT22;10145;49.152;9.282;2022-10-16T11:39:00;22.50;99.90
19968;DHT22;10145;49.152;9.282;2022-10-16T11:41:32;22.50;99.90
19968;DHT22;10145;49.152;9.282;2022-10-16T11:46:51;22.30;99.90
19968;DHT22;10145;49.152;9.282;2022-10-16T11:49:22;22.40;99.90
19968;DHT22;10145;49.152;9.282;2022-10-16T11:52:05;22.30;99.90
19968;DHT22;10145;49.152;9.282;2022-10-16T11:54:41;22.30;99.90
19968;DHT22;10145;49.152;9.282;2022-10-16T11:57:14;22.40;99.90
19968;DHT22;10145;49.152;9.282;2022-10-16T12:00:00;22.40;99.90
19968;DHT22;10145;49.152;9.282;2022-10-16T12:05:28;22.10;99.90
19968;DHT22;10145;49.152;9.282;2022-10-16T12:08:10;22.00;99.90
19968;DHT22;10145;49.152;9.282;2022-10-16T12:10:36;22.20;99.90
19968;DHT22;10145;49.152;9.282;2022-10-16T12:13:04;22.40;99.90
19968;DHT22;10145;49.152;9.282;2022-10-16T12:15:32;22.80;99.90
19968;DHT22;10145;49.152;9.282;2022-10-16T12:17:58;23.10;99.90
19968;DHT22;10145;49.152;9.282;2022-10-16T12:20:32;23.40;99.90
19968;DHT22;10145;49.152;9.282;2022-10-16T12:23:03;24.00;99.90
19968;DHT22;10145;49.152;9.282;2022-10-16T12:25:37;24.30;99.90
19968;DHT22;10145;49.152;9.282;2022-10-16T12:28:21;24.50;99.90
19968;DHT22;10145;49.152;9.282;2022-10-16T12:30:58;24.70;99.90
19968;DHT22;10145;49.152;9.282;2022-10-16T12:33:33;24.90;99.90
19968;DHT22;10145;49.152;9.282;2022-10-16T12:36:03;25.30;99.90
19968;DHT22;10145;49.152;9.282;2022-10-16T12:38:51;25.30;99.90
19968;DHT22;10145;49.152;9.282;2022-10-16T12:41:29;25.40;99.90
19968;DHT22;10145;49.152;9.282;2022-10-16T12:43:55;25.60;99.90
19968;DHT22;10145;49.152;9.282;2022-10-16T12:48:49;25.50;99.90
19968;DHT22;10145;49.152;9.282;2022-10-16T12:51:45;25.40;99.90
19968;DHT22;10145;49.152;9.282;2022-10-16T12:54:36;25.50;99.90
19968;DHT22;10145;49.152;9.282;2022-10-16T12:57:32;25.50;99.90
19968;DHT22;10145;49.152;9.282;2022-10-16T13:00:24;25.10;99.90
19968;DHT22;10145;49.152;9.282;2022-10-16T13:20:09;23.60;99.90
19968;DHT22;10145;49.152;9.282;2022-10-16T13:28:15;23.00;99.90
19968;DHT22;10145;49.152;9.282;2022-10-16T13:30:50;23.00;99.90
19968;DHT22;10145;49.152;9.282;2022-10-16T13:36:04;22.90;99.90
19968;DHT22;10145;49.152;9.282;2022-10-16T13:38:35;22.80;99.90
19968;DHT22;10145;49.152;9.282;2022-10-16T13:41:04;22.80;99.90
19968;DHT22;10145;49.152;9.282;2022-10-16T13:46:06;22.60;99.90
19968;DHT22;10145;49.152;9.282;2022-10-16T13:48:33;22.60;99.90
19968;DHT22;10145;49.152;9.282;2022-10-16T13:53:33;22.50;99.90
19968;DHT22;10145;49.152;9.282;2022-10-16T13:56:02;22.40;99.90
19968;DHT22;10145;49.152;9.282;2022-10-16T13:58:28;22.40;99.90
19968;DHT22;10145;49.152;9.282;2022-10-16T14:00:56;22.40;99.90
19968;DHT22;10145;49.152;9.282;2022-10-16T14:03:22;22.30;99.90
19968;DHT22;10145;49.152;9.282;2022-10-16T14:05:51;22.30;99.90
19968;DHT22;10145;49.152;9.282;2022-10-16T14:08:17;22.20;99.90
19968;DHT22;10145;49.152;9.282;2022-10-16T14:10:48;22.20;99.90
19968;DHT22;10145;49.152;9.282;2022-10-16T14:13:18;22.10;99.90
19968;DHT22;10145;49.152;9.282;2022-10-16T14:15:47;22.20;99.90
19968;DHT22;10145;49.152;9.282;2022-10-16T14:18:20;22.50;99.90
19968;DHT22;10145;49.152;9.282;2022-10-16T14:20:46;22.90;99.90
19968;DHT22;10145;49.152;9.282;2022-10-16T14:23:28;23.20;99.90
19968;DHT22;10145;49.152;9.282;2022-10-16T14:25:54;23.50;99.90
19968;DHT22;10145;49.152;9.282;2022-10-16T14:28:30;23.50;99.90
19968;DHT22;10145;49.152;9.282;2022-10-16T14:30:58;23.40;99.90
19968;DHT22;10145;49.152;9.282;2022-10-16T14:38:27;22.90;99.90
19968;DHT22;10145;49.152;9.282;2022-10-16T14:40:54;22.80;99.90
19968;DHT22;10145;49.152;9.282;2022-10-16T14:43:33;22.50;99.90
19968;DHT22;10145;49.152;9.282;2022-10-16T14:46:00;22.40;99.90
19968;DHT22;10145;49.152;9.282;2022-10-16T14:48:27;22.20;99.90
19968;DHT22;10145;49.152;9.282;2022-10-16T14:50:52;21.90;99.90
19968;DHT22;10145;49.152;9.282;2022-10-16T14:53:18;21.90;99.90
19968;DHT22;10145;49.152;9.282;2022-10-16T14:55:44;21.80;99.90
19968;DHT22;10145;49.152;9.282;2022-10-16T14:58:19;21.60;99.90
19968;DHT22;10145;49.152;9.282;2022-10-16T15:00:44;21.60;99.90
19968;DHT22;10145;49.152;9.282;2022-10-16T15:03:10;21.40;99.90
19968;DHT22;10145;49.152;9.282;2022-10-16T15:05:36;21.30;99.90
19968;DHT22;10145;49.152;9.282;2022-10-16T15:08:02;21.20;99.90
19968;DHT22;10145;49.152;9.282;2022-10-16T15:10:28;21.10;99.90
19968;DHT22;10145;49.152;9.282;2022-10-16T15:12:54;21.00;99.90
19968;DHT22;10145;49.152;9.282;2022-10-16T15:17:56;20.80;99.90
19968;DHT22;10145;49.152;9.282;2022-10-16T15:20:26;20.70;99.90
19968;DHT22;10145;49.152;9.282;2022-10-16T15:22:51;20.90;99.90
19968;DHT22;10145;49.152;9.282;2022-10-16T15:25:41;21.40;99.90
19968;DHT22;10145;49.152;9.282;2022-10-16T15:28:08;21.90;99.90
19968;DHT22;10145;49.152;9.282;2022-10-16T15:30:35;22.20;99.90
19968;DHT22;10145;49.152;9.282;2022-10-16T15:33:02;22.20;99.90
19968;DHT22;10145;49.152;9.282;2022-10-16T15:35:28;22.20;99.90
19968;DHT22;10145;49.152;9.282;2022-10-16T15:37:54;22.00;99.90
19968;DHT22;10145;49.152;9.282;2022-10-16T15:40:20;21.90;99.90
19968;DHT22;10145;49.152;9.282;2022-10-16T15:42:46;21.80;99.90
19968;DHT22;10145;49.152;9.282;2022-10-16T15:45:12;21.70;99.90
19968;DHT22;10145;49.152;9.282;2022-10-16T15:47:40;21.60;99.90
19968;DHT22;10145;49.152;9.282;2022-10-16T15:50:06;21.40;99.90
19968;DHT22;10145;49.152;9.282;2022-10-16T15:52:32;21.30;99.90
19968;DHT22;10145;49.152;9.282;2022-10-16T15:54:58;21.30;99.90
19968;DHT22;10145;49.152;9.282;2022-10-16T15:57:24;21.20;99.90
19968;DHT22;10145;49.152;9.282;2022-10-16T15:59:50;21.10;99.90
19968;DHT22;10145;49.152;9.282;2022-10-16T16:02:16;20.90;99.90
19968;DHT22;10145;49.152;9.282;2022-10-16T16:04:41;20.70;99.90
19968;DHT22;10145;49.152;9.282;2022-10-16T16:07:07;20.50;99.90
19968;DHT22;10145;49.152;9.282;2022-10-16T16:09:33;20.20;99.90
19968;DHT22;10145;49.152;9.282;2022-10-16T16:11:59;20.20;99.90
19968;DHT22;10145;49.152;9.282;2022-10-16T16:14:26;19.90;99.90
19968;DHT22;10145;49.152;9.282;2022-10-16T16:16:56;19.60;99.90
19968;DHT22;10145;49.152;9.282;2022-10-16T16:19:22;19.40;99.90
19968;DHT22;10145;49.152;9.282;2022-10-16T16:21:48;19.20;99.90
19968;DHT22;10145;49.152;9.282;2022-10-16T16:24:14;19.10;99.90
19968;DHT22;10145;49.152;9.282;2022-10-16T16:26:40;18.80;99.90
19968;DHT22;10145;49.152;9.282;2022-10-16T16:29:13;18.60;99.90
19968;DHT22;10145;49.152;9.282;2022-10-16T16:31:40;18.50;99.90
19968;DHT22;10145;49.152;9.282;2022-10-16T16:34:06;18.40;99.90
19968;DHT22;10145;49.152;9.282;2022-10-16T16:36:32;18.20;99.90
19968;DHT22;10145;49.152;9.282;2022-10-16T16:38:58;18.10;99.90
19968;DHT22;10145;49.152;9.282;2022-10-16T16:41:26;18.00;99.90
19968;DHT22;10145;49.152;9.282;2022-10-16T16:43:52;18.00;99.90
19968;DHT22;10145;49.152;9.282;2022-10-16T16:46:18;17.80;99.90
19968;DHT22;10145;49.152;9.282;2022-10-16T16:48:45;17.70;99.90
19968;DHT22;10145;49.152;9.282;2022-10-16T16:51:13;17.60;99.90
19968;DHT22;10145;49.152;9.282;2022-10-16T16:53:46;17.50;99.90
19968;DHT22;10145;49.152;9.282;2022-10-16T16:56:12;17.40;99.90
19968;DHT22;10145;49.152;9.282;2022-10-16T16:58:38;17.30;99.90
19968;DHT22;10145;49.152;9.282;2022-10-16T17:01:04;17.10;99.90
19968;DHT22;10145;49.152;9.282;2022-10-16T17:03:33;17.00;99.90
19968;DHT22;10145;49.152;9.282;2022-10-16T17:06:04;16.90;99.90
19968;DHT22;10145;49.152;9.282;2022-10-16T17:08:30;16.70;99.90
19968;DHT22;10145;49.152;9.282;2022-10-16T17:10:56;16.60;99.90
19968;DHT22;10145;49.152;9.282;2022-10-16T17:13:26;16.60;99.90
19968;DHT22;10145;49.152;9.282;2022-10-16T17:15:53;16.50;99.90
19968;DHT22;10145;49.152;9.282;2022-10-16T17:18:19;16.40;99.90
19968;DHT22;10145;49.152;9.282;2022-10-16T17:20:45;16.30;99.90
19968;DHT22;10145;49.152;9.282;2022-10-16T17:23:11;16.20;99.90
19968;DHT22;10145;49.152;9.282;2022-10-16T17:25:38;16.20;99.90
19968;DHT22;10145;49.152;9.282;2022-10-16T17:28:04;16.10;99.90
19968;DHT22;10145;49.152;9.282;2022-10-16T17:30:31;15.90;99.90
19968;DHT22;10145;49.152;9.282;2022-10-16T17:32:58;15.80;99.90
19968;DHT22;10145;49.152;9.282;2022-10-16T17:35:24;15.80;99.90
19968;DHT22;10145;49.152;9.282;2022-10-16T17:37:51;15.70;99.90
19968;DHT22;10145;49.152;9.282;2022-10-16T17:40:17;15.60;99.90
19968;DHT22;10145;49.152;9.282;2022-10-16T17:42:43;15.60;99.90
19968;DHT22;10145;49.152;9.282;2022-10-16T17:45:09;15.60;99.90
19968;DHT22;10145;49.152;9.282;2022-10-16T17:47:35;15.60;99.90
19968;DHT22;10145;49.152;9.282;2022-10-16T17:50:02;15.60;99.90
19968;DHT22;10145;49.152;9.282;2022-10-16T17:52:27;15.40;99.90
19968;DHT22;10145;49.152;9.282;2022-10-16T17:54:53;15.50;99.90
19968;DHT22;10145;49.152;9.282;2022-10-16T17:57:18;15.40;99.90
19968;DHT22;10145;49.152;9.282;2022-10-16T17:59:44;15.40;99.90
19968;DHT22;10145;49.152;9.282;2022-10-16T18:02:10;15.40;99.90
19968;DHT22;10145;49.152;9.282;2022-10-16T18:04:36;15.30;99.90
19968;DHT22;10145;49.152;9.282;2022-10-16T18:07:02;15.30;99.90
19968;DHT22;10145;49.152;9.282;2022-10-16T18:09:28;15.20;99.90
19968;DHT22;10145;49.152;9.282;2022-10-16T18:11:54;15.10;99.90
19968;DHT22;10145;49.152;9.282;2022-10-16T18:14:28;15.20;99.90
19968;DHT22;10145;49.152;9.282;2022-10-16T18:16:55;15.20;99.90
19968;DHT22;10145;49.152;9.282;2022-10-16T18:19:21;15.20;99.90
19968;DHT22;10145;49.152;9.282;2022-10-16T18:21:47;15.10;99.90
19968;DHT22;10145;49.152;9.282;2022-10-16T18:24:17;15.10;99.90
19968;DHT22;10145;49.152;9.282;2022-10-16T18:26:44;15.10;99.90
19968;DHT22;10145;49.152;9.282;2022-10-16T18:29:10;15.00;99.90
19968;DHT22;10145;49.152;9.282;2022-10-16T18:31:37;15.00;99.90
19968;DHT22;10145;49.152;9.282;2022-10-16T18:34:03;14.90;99.90
19968;DHT22;10145;49.152;9.282;2022-10-16T18:36:30;14.90;99.90
19968;DHT22;10145;49.152;9.282;2022-10-16T18:39:02;14.90;99.90
19968;DHT22;10145;49.152;9.282;2022-10-16T18:41:29;14.90;99.90
19968;DHT22;10145;49.152;9.282;2022-10-16T18:43:56;14.80;99.90
19968;DHT22;10145;49.152;9.282;2022-10-16T18:46:23;14.70;99.90
19968;DHT22;10145;49.152;9.282;2022-10-16T18:48:49;14.60;99.90
19968;DHT22;10145;49.152;9.282;2022-10-16T18:51:31;14.50;99.90
19968;DHT22;10145;49.152;9.282;2022-10-16T18:53:59;14.60;99.90
19968;DHT22;10145;49.152;9.282;2022-10-16T18:56:27;14.60;99.90
19968;DHT22;10145;49.152;9.282;2022-10-16T18:58:53;14.50;99.90
19968;DHT22;10145;49.152;9.282;2022-10-16T19:01:21;14.40;99.90
19968;DHT22;10145;49.152;9.282;2022-10-16T19:04:01;14.40;99.90
19968;DHT22;10145;49.152;9.282;2022-10-16T19:06:28;14.40;99.90
19968;DHT22;10145;49.152;9.282;2022-10-16T19:08:55;14.30;99.90
19968;DHT22;10145;49.152;9.282;2022-10-16T19:11:23;14.20;99.90
19968;DHT22;10145;49.152;9.282;2022-10-16T19:13:50;14.20;99.90
19968;DHT22;10145;49.152;9.282;2022-10-16T19:16:18;14.20;99.90
19968;DHT22;10145;49.152;9.282;2022-10-16T19:18:45;14.20;99.90
19968;DHT22;10145;49.152;9.282;2022-10-16T19:21:12;14.30;99.90
19968;DHT22;10145;49.152;9.282;2022-10-16T19:23:39;14.30;99.90
19968;DHT22;10145;49.152;9.282;2022-10-16T19:26:10;14.20;99.90
19968;DHT22;10145;49.152;9.282;2022-10-16T19:28:36;14.20;99.90
19968;DHT22;10145;49.152;9.282;2022-10-16T19:31:14;14.20;99.90
19968;DHT22;10145;49.152;9.282;2022-10-16T19:33:40;14.10;99.90
19968;DHT22;10145;49.152;9.282;2022-10-16T19:36:17;14.10;99.90
19968;DHT22;10145;49.152;9.282;2022-10-16T19:38:44;14.10;99.90
19968;DHT22;10145;49.152;9.282;2022-10-16T19:41:12;14.00;99.90
19968;DHT22;10145;49.152;9.282;2022-10-16T19:43:39;14.00;99.90
19968;DHT22;10145;49.152;9.282;2022-10-16T19:46:07;14.00;99.90
19968;DHT22;10145;49.152;9.282;2022-10-16T19:48:33;14.00;99.90
19968;DHT22;10145;49.152;9.282;2022-10-16T19:50:59;14.00;99.90
19968;DHT22;10145;49.152;9.282;2022-10-16T19:53:25;13.90;99.90
19968;DHT22;10145;49.152;9.282;2022-10-16T19:55:53;13.90;99.90
19968;DHT22;10145;49.152;9.282;2022-10-16T19:58:19;13.90;99.90
19968;DHT22;10145;49.152;9.282;2022-10-16T20:00:44;13.90;99.90
19968;DHT22;10145;49.152;9.282;2022-10-16T20:03:10;13.90;99.90
19968;DHT22;10145;49.152;9.282;2022-10-16T20:05:35;13.90;99.90
19968;DHT22;10145;49.152;9.282;2022-10-16T20:08:01;13.90;99.90
19968;DHT22;10145;49.152;9.282;2022-10-16T20:10:26;13.80;99.90
19968;DHT22;10145;49.152;9.282;2022-10-16T20:12:52;13.80;99.90
19968;DHT22;10145;49.152;9.282;2022-10-16T20:15:18;13.80;99.90
19968;DHT22;10145;49.152;9.282;2022-10-16T20:17:43;13.80;99.90
19968;DHT22;10145;49.152;9.282;2022-10-16T20:20:09;13.70;99.90
19968;DHT22;10145;49.152;9.282;2022-10-16T20:22:35;13.70;99.90
19968;DHT22;10145;49.152;9.282;2022-10-16T20:25:01;13.60;99.90
19968;DHT22;10145;49.152;9.282;2022-10-16T20:27:26;13.50;99.90
19968;DHT22;10145;49.152;9.282;2022-10-16T20:29:54;13.50;99.90
19968;DHT22;10145;49.152;9.282;2022-10-16T20:32:20;13.40;99.90
19968;DHT22;10145;49.152;9.282;2022-10-16T20:34:45;13.40;99.90
19968;DHT22;10145;49.152;9.282;2022-10-16T20:37:14;13.30;99.90
19968;DHT22;10145;49.152;9.282;2022-10-16T20:39:40;13.20;99.90
19968;DHT22;10145;49.152;9.282;2022-10-16T20:42:05;13.20;99.90
19968;DHT22;10145;49.152;9.282;2022-10-16T20:44:32;13.10;99.90
19968;DHT22;10145;49.152;9.282;2022-10-16T20:46:58;13.10;99.90
19968;DHT22;10145;49.152;9.282;2022-10-16T20:49:23;13.00;99.90
19968;DHT22;10145;49.152;9.282;2022-10-16T20:51:49;13.00;99.90
19968;DHT22;10145;49.152;9.282;2022-10-16T20:54:15;13.00;99.90
19968;DHT22;10145;49.152;9.282;2022-10-16T20:56:41;13.00;99.90
19968;DHT22;10145;49.152;9.282;2022-10-16T20:59:07;13.00;99.90
19968;DHT22;10145;49.152;9.282;2022-10-16T21:01:34;12.90;99.90
19968;DHT22;10145;49.152;9.282;2022-10-16T21:04:02;12.90;99.90
19968;DHT22;10145;49.152;9.282;2022-10-16T21:06:30;12.90;99.90
19968;DHT22;10145;49.152;9.282;2022-10-16T21:08:57;12.90;99.90
19968;DHT22;10145;49.152;9.282;2022-10-16T21:11:29;12.90;99.90